sensor_id;sensor_type;location;lat;lon;timestamp;pressure;altitude;pressure_sealevel;temperature;humidity
67738;BME280;54534;43.612;1.572;2022-08-18T00:00:38;98984.25;;;24.88;48.92
67738;BME280;54534;43.612;1.572;2022-08-18T00:03:06;98979.69;;;24.89;49.14
67738;BME280;54534;43.612;1.572;2022-08-18T00:05:33;98970.78;;;24.88;48.78
67738;BME280;54534;43.612;1.572;2022-08-18T00:07:59;98967.25;;;24.88;48.84
67738;BME280;54534;43.612;1.572;2022-08-18T00:10:25;98964.56;;;24.88;48.91
67738;BME280;54534;43.612;1.572;2022-08-18T00:12:50;98973.63;;;24.87;48.70
67738;BME280;54534;43.612;1.572;2022-08-18T00:15:17;98979.84;;;24.87;48.82
67738;BME280;54534;43.612;1.572;2022-08-18T00:17:43;98980.88;;;24.86;48.72
67738;BME280;54534;43.612;1.572;2022-08-18T00:20:13;98979.00;;;24.87;48.90
67738;BME280;54534;43.612;1.572;2022-08-18T00:22:39;98978.19;;;24.86;48.70
67738;BME280;54534;43.612;1.572;2022-08-18T00:25:05;98980.88;;;24.86;48.90
67738;BME280;54534;43.612;1.572;2022-08-18T00:27:34;98967.44;;;24.86;48.65
67738;BME280;54534;43.612;1.572;2022-08-18T00:30:03;98961.22;;;24.86;48.96
67738;BME280;54534;43.612;1.572;2022-08-18T00:32:35;98960.38;;;24.85;48.63
67738;BME280;54534;43.612;1.572;2022-08-18T00:35:16;98964.06;;;24.84;48.60
67738;BME280;54534;43.612;1.572;2022-08-18T00:37:43;98972.13;;;24.84;48.77
67738;BME280;54534;43.612;1.572;2022-08-18T00:40:12;98976.69;;;24.84;48.97
67738;BME280;54534;43.612;1.572;2022-08-18T00:42:44;98977.50;;;24.84;48.58
67738;BME280;54534;43.612;1.572;2022-08-18T00:45:15;98968.63;;;24.84;48.87
67738;BME280;54534;43.612;1.572;2022-08-18T00:47:41;98968.63;;;24.84;48.38
67738;BME280;54534;43.612;1.572;2022-08-18T00:50:07;98965.94;;;24.84;48.51
67738;BME280;54534;43.612;1.572;2022-08-18T00:52:33;98969.63;;;24.83;48.64
67738;BME280;54534;43.612;1.572;2022-08-18T00:54:59;98965.25;;;24.82;48.60
67738;BME280;54534;43.612;1.572;2022-08-18T00:57:27;98965.25;;;24.82;48.85
67738;BME280;54534;43.612;1.572;2022-08-18T01:00:00;98976.84;;;24.82;48.88
67738;BME280;54534;43.612;1.572;2022-08-18T01:02:41;98973.50;;;24.80;48.49
67738;BME280;54534;43.612;1.572;2022-08-18T01:05:17;98961.75;;;24.81;48.88
67738;BME280;54534;43.612;1.572;2022-08-18T01:07:47;98955.50;;;24.81;48.67
67738;BME280;54534;43.612;1.572;2022-08-18T01:10:16;98941.22;;;24.80;48.69
67738;BME280;54534;43.612;1.572;2022-08-18T01:12:43;98944.09;;;24.79;49.10
67738;BME280;54534;43.612;1.572;2022-08-18T01:15:10;98946.78;;;24.79;48.63
67738;BME280;54534;43.612;1.572;2022-08-18T01:17:38;98950.47;;;24.77;48.68
67738;BME280;54534;43.612;1.572;2022-08-18T01:20:30;98953.16;;;24.77;48.96
67738;BME280;54534;43.612;1.572;2022-08-18T01:23:18;98955.84;;;24.77;48.89
67738;BME280;54534;43.612;1.572;2022-08-18T01:25:45;98946.09;;;24.76;48.74
67738;BME280;54534;43.612;1.572;2022-08-18T01:28:29;98940.91;;;24.75;48.73
67738;BME280;54534;43.612;1.572;2022-08-18T01:30:56;98941.75;;;24.75;48.84
67738;BME280;54534;43.612;1.572;2022-08-18T01:33:51;98944.44;;;24.75;49.09
67738;BME280;54534;43.612;1.572;2022-08-18T01:36:20;98939.06;;;24.75;49.08
67738;BME280;54534;43.612;1.572;2022-08-18T01:38:49;98932.84;;;24.75;49.11
67738;BME280;54534;43.612;1.572;2022-08-18T01:41:16;98940.06;;;24.74;48.97
67738;BME280;54534;43.612;1.572;2022-08-18T01:43:43;98941.91;;;24.74;49.03
67738;BME280;54534;43.612;1.572;2022-08-18T01:46:09;98930.34;;;24.73;48.83
67738;BME280;54534;43.612;1.572;2022-08-18T01:48:36;98931.34;;;24.72;48.83
67738;BME280;54534;43.612;1.572;2022-08-18T01:51:03;98926.81;;;24.73;48.88
67738;BME280;54534;43.612;1.572;2022-08-18T01:53:29;98927.78;;;24.72;48.93
67738;BME280;54534;43.612;1.572;2022-08-18T01:55:54;98926.94;;;24.71;48.95
67738;BME280;54534;43.612;1.572;2022-08-18T01:58:21;98932.31;;;24.71;49.07
67738;BME280;54534;43.612;1.572;2022-08-18T02:00:52;98940.56;;;24.70;48.75
67738;BME280;54534;43.612;1.572;2022-08-18T02:03:18;98945.78;;;24.71;48.60
67738;BME280;54534;43.612;1.572;2022-08-18T02:05:48;98940.56;;;24.70;49.00
67738;BME280;54534;43.612;1.572;2022-08-18T02:08:14;98946.78;;;24.70;48.74
67738;BME280;54534;43.612;1.572;2022-08-18T02:10:40;98941.56;;;24.69;48.75
67738;BME280;54534;43.612;1.572;2022-08-18T02:13:07;98946.94;;;24.69;48.66
67738;BME280;54534;43.612;1.572;2022-08-18T02:15:33;98954.19;;;24.68;48.89
67738;BME280;54534;43.612;1.572;2022-08-18T02:17:58;98947.97;;;24.68;48.83
67738;BME280;54534;43.612;1.572;2022-08-18T02:20:24;98932.69;;;24.68;48.60
67738;BME280;54534;43.612;1.572;2022-08-18T02:22:50;98942.59;;;24.68;48.57
67738;BME280;54534;43.612;1.572;2022-08-18T02:25:16;98941.75;;;24.67;48.78
67738;BME280;54534;43.612;1.572;2022-08-18T02:27:42;98941.94;;;24.65;48.54
67738;BME280;54534;43.612;1.572;2022-08-18T02:30:11;98940.06;;;24.66;48.63
67738;BME280;54534;43.612;1.572;2022-08-18T02:32:37;98931.19;;;24.65;48.68
67738;BME280;54534;43.612;1.572;2022-08-18T02:35:05;98935.72;;;24.65;48.79
67738;BME280;54534;43.612;1.572;2022-08-18T02:37:31;98927.66;;;24.65;48.78
67738;BME280;54534;43.612;1.572;2022-08-18T02:39:56;98917.06;;;24.63;48.71
67738;BME280;54534;43.612;1.572;2022-08-18T02:42:22;98922.44;;;24.63;48.73
67738;BME280;54534;43.612;1.572;2022-08-18T02:44:47;98925.31;;;24.62;48.60
67738;BME280;54534;43.612;1.572;2022-08-18T02:47:13;98926.16;;;24.62;48.92
67738;BME280;54534;43.612;1.572;2022-08-18T02:49:38;98927.00;;;24.63;48.67
67738;BME280;54534;43.612;1.572;2022-08-18T02:52:04;98920.91;;;24.61;48.43
67738;BME280;54534;43.612;1.572;2022-08-18T02:54:30;98925.47;;;24.60;48.72
67738;BME280;54534;43.612;1.572;2022-08-18T02:56:56;98929.00;;;24.61;48.42
67738;BME280;54534;43.612;1.572;2022-08-18T02:59:23;98915.53;;;24.61;48.71
67738;BME280;54534;43.612;1.572;2022-08-18T03:01:51;98924.63;;;24.60;48.41
67738;BME280;54534;43.612;1.572;2022-08-18T03:04:21;98920.09;;;24.60;48.59
67738;BME280;54534;43.612;1.572;2022-08-18T03:06:47;98922.09;;;24.58;48.70
67738;BME280;54534;43.612;1.572;2022-08-18T03:09:15;98917.56;;;24.59;48.70
67738;BME280;54534;43.612;1.572;2022-08-18T03:11:41;98911.34;;;24.58;48.46
67738;BME280;54534;43.612;1.572;2022-08-18T03:14:07;98910.69;;;24.56;48.85
67738;BME280;54534;43.612;1.572;2022-08-18T03:16:33;98904.47;;;24.55;48.69
67738;BME280;54534;43.612;1.572;2022-08-18T03:19:01;98900.97;;;24.55;48.62
67738;BME280;54534;43.612;1.572;2022-08-18T03:21:29;98908.00;;;24.56;48.71
67738;BME280;54534;43.612;1.572;2022-08-18T03:23:55;98909.84;;;24.55;48.67
67738;BME280;54534;43.612;1.572;2022-08-18T03:26:22;98910.03;;;24.54;48.55
67738;BME280;54534;43.612;1.572;2022-08-18T03:28:49;98914.56;;;24.53;48.51
67738;BME280;54534;43.612;1.572;2022-08-18T03:31:16;98919.94;;;24.53;48.59
67738;BME280;54534;43.612;1.572;2022-08-18T03:33:43;98925.31;;;24.53;48.36
67738;BME280;54534;43.612;1.572;2022-08-18T03:36:16;98931.72;;;24.52;48.55
67738;BME280;54534;43.612;1.572;2022-08-18T03:38:43;98929.03;;;24.52;48.46
67738;BME280;54534;43.612;1.572;2022-08-18T03:41:10;98930.88;;;24.52;48.52
67738;BME280;54534;43.612;1.572;2022-08-18T03:43:36;98938.09;;;24.51;48.50
67738;BME280;54534;43.612;1.572;2022-08-18T03:46:03;98951.53;;;24.51;48.50
67738;BME280;54534;43.612;1.572;2022-08-18T03:48:30;98963.28;;;24.50;48.52
67738;BME280;54534;43.612;1.572;2022-08-18T03:53:31;98962.41;;;24.50;48.34
67738;BME280;54534;43.612;1.572;2022-08-18T03:55:59;98960.75;;;24.49;48.37
67738;BME280;54534;43.612;1.572;2022-08-18T03:58:25;98949.16;;;24.48;48.44
67738;BME280;54534;43.612;1.572;2022-08-18T04:00:51;98950.00;;;24.49;48.16
67738;BME280;54534;43.612;1.572;2022-08-18T04:03:17;98954.72;;;24.47;48.27
67738;BME280;54534;43.612;1.572;2022-08-18T04:05:42;98959.06;;;24.48;48.33
67738;BME280;54534;43.612;1.572;2022-08-18T04:08:07;98960.91;;;24.47;48.32
67738;BME280;54534;43.612;1.572;2022-08-18T04:10:33;98961.94;;;24.46;48.27
67738;BME280;54534;43.612;1.572;2022-08-18T04:13:00;98958.41;;;24.46;48.19
67738;BME280;54534;43.612;1.572;2022-08-18T04:15:29;98958.59;;;24.44;48.17
67738;BME280;54534;43.612;1.572;2022-08-18T04:18:00;98960.25;;;24.45;48.34
67738;BME280;54534;43.612;1.572;2022-08-18T04:20:29;98950.53;;;24.44;48.20
67738;BME280;54534;43.612;1.572;2022-08-18T04:22:57;98937.09;;;24.44;48.09
67738;BME280;54534;43.612;1.572;2022-08-18T04:25:23;98934.56;;;24.42;48.35
67738;BME280;54534;43.612;1.572;2022-08-18T04:27:48;98930.03;;;24.43;48.44
67738;BME280;54534;43.612;1.572;2022-08-18T04:30:13;98929.19;;;24.42;48.39
67738;BME280;54534;43.612;1.572;2022-08-18T04:32:39;98933.72;;;24.42;48.37
67738;BME280;54534;43.612;1.572;2022-08-18T04:35:05;98926.69;;;24.41;48.16
67738;BME280;54534;43.612;1.572;2022-08-18T04:37:31;98924.97;;;24.40;48.36
67738;BME280;54534;43.612;1.572;2022-08-18T04:39:57;98924.97;;;24.40;48.26
67738;BME280;54534;43.612;1.572;2022-08-18T04:42:24;98923.16;;;24.40;48.40
67738;BME280;54534;43.612;1.572;2022-08-18T04:44:49;98920.63;;;24.39;48.49
67738;BME280;54534;43.612;1.572;2022-08-18T04:47:16;98924.13;;;24.39;48.37
67738;BME280;54534;43.612;1.572;2022-08-18T04:49:41;98927.84;;;24.38;48.33
67738;BME280;54534;43.612;1.572;2022-08-18T04:52:09;98935.06;;;24.38;48.28
67738;BME280;54534;43.612;1.572;2022-08-18T04:54:53;98937.75;;;24.38;48.26
67738;BME280;54534;43.612;1.572;2022-08-18T04:57:19;98950.53;;;24.36;48.45
67738;BME280;54534;43.612;1.572;2022-08-18T04:59:47;98946.16;;;24.35;48.34
67738;BME280;54534;43.612;1.572;2022-08-18T05:02:14;98952.53;;;24.33;48.61
67738;BME280;54534;43.612;1.572;2022-08-18T05:04:41;98951.03;;;24.31;48.64
67738;BME280;54534;43.612;1.572;2022-08-18T05:07:09;98957.41;;;24.30;48.78
67738;BME280;54534;43.612;1.572;2022-08-18T05:09:35;98963.94;;;24.27;48.76
67738;BME280;54534;43.612;1.572;2022-08-18T05:12:02;98963.25;;;24.25;48.96
67738;BME280;54534;43.612;1.572;2022-08-18T05:14:28;98961.56;;;24.24;48.63
67738;BME280;54534;43.612;1.572;2022-08-18T05:16:57;98959.06;;;24.22;48.79
67738;BME280;54534;43.612;1.572;2022-08-18T05:19:23;98959.22;;;24.21;48.62
67738;BME280;54534;43.612;1.572;2022-08-18T05:21:50;98975.50;;;24.19;48.90
67738;BME280;54534;43.612;1.572;2022-08-18T05:24:19;98970.31;;;24.18;48.78
67738;BME280;54534;43.612;1.572;2022-08-18T05:26:45;98965.25;;;24.15;48.79
67738;BME280;54534;43.612;1.572;2022-08-18T05:29:11;98981.38;;;24.15;48.80
67738;BME280;54534;43.612;1.572;2022-08-18T05:31:37;98982.56;;;24.12;48.95
67738;BME280;54534;43.612;1.572;2022-08-18T05:34:03;98978.34;;;24.09;48.92
67738;BME280;54534;43.612;1.572;2022-08-18T05:39:34;98971.63;;;24.05;49.09
67738;BME280;54534;43.612;1.572;2022-08-18T05:42:05;98978.00;;;24.04;49.02
67738;BME280;54534;43.612;1.572;2022-08-18T05:44:35;98982.84;;;24.00;49.04
67738;BME280;54534;43.612;1.572;2022-08-18T05:47:43;98975.13;;;23.97;48.96
67738;BME280;54534;43.612;1.572;2022-08-18T05:49:51;98990.41;;;23.97;48.70
67738;BME280;54534;43.612;1.572;2022-08-18T05:54:52;98981.00;;;23.93;49.23
67738;BME280;54534;43.612;1.572;2022-08-18T05:57:43;98978.50;;;23.91;49.32
67738;BME280;54534;43.612;1.572;2022-08-18T06:00:10;98970.59;;;23.89;49.31
67738;BME280;54534;43.612;1.572;2022-08-18T06:05:14;98973.59;;;23.86;49.45
67738;BME280;54534;43.612;1.572;2022-08-18T06:07:53;98976.13;;;23.88;49.48
67738;BME280;54534;43.612;1.572;2022-08-18T06:10:21;98973.59;;;23.86;49.55
67738;BME280;54534;43.612;1.572;2022-08-18T06:12:53;98976.28;;;23.86;49.60
67738;BME280;54534;43.612;1.572;2022-08-18T06:26:19;98967.22;;;23.87;49.65
67738;BME280;54534;43.612;1.572;2022-08-18T06:29:17;98971.59;;;23.88;49.35
67738;BME280;54534;43.612;1.572;2022-08-18T06:37:13;98989.38;;;23.89;49.29
67738;BME280;54534;43.612;1.572;2022-08-18T06:39:50;98994.75;;;23.89;49.13
67738;BME280;54534;43.612;1.572;2022-08-18T06:42:23;99000.78;;;23.92;49.39
67738;BME280;54534;43.612;1.572;2022-08-18T06:45:07;99008.03;;;23.91;49.25
67738;BME280;54534;43.612;1.572;2022-08-18T06:47:45;99008.84;;;23.92;49.07
67738;BME280;54534;43.612;1.572;2022-08-18T06:50:24;99007.19;;;23.91;49.16
67738;BME280;54534;43.612;1.572;2022-08-18T06:52:53;99008.84;;;23.92;49.01
67738;BME280;54534;43.612;1.572;2022-08-18T06:58:05;99025.81;;;23.92;49.16
67738;BME280;54534;43.612;1.572;2022-08-18T07:00:54;99037.38;;;23.93;48.96
67738;BME280;54534;43.612;1.572;2022-08-18T07:03:41;99046.13;;;23.95;49.08
67738;BME280;54534;43.612;1.572;2022-08-18T07:06:24;99048.78;;;23.95;48.94
67738;BME280;54534;43.612;1.572;2022-08-18T07:08:53;99052.34;;;23.95;49.02
67738;BME280;54534;43.612;1.572;2022-08-18T07:13:50;99062.06;;;23.96;48.92
67738;BME280;54534;43.612;1.572;2022-08-18T07:16:24;99054.84;;;23.97;49.08
67738;BME280;54534;43.612;1.572;2022-08-18T07:19:09;99060.22;;;23.97;48.85
67738;BME280;54534;43.612;1.572;2022-08-18T07:21:37;99062.91;;;23.97;48.83
67738;BME280;54534;43.612;1.572;2022-08-18T07:24:09;99077.16;;;23.97;48.90
67738;BME280;54534;43.612;1.572;2022-08-18T07:27:01;99084.22;;;23.98;48.86
67738;BME280;54534;43.612;1.572;2022-08-18T07:29:29;99088.75;;;23.98;48.94
67738;BME280;54534;43.612;1.572;2022-08-18T07:31:59;99077.16;;;23.97;48.45
67738;BME280;54534;43.612;1.572;2022-08-18T07:34:29;99082.41;;;23.99;48.89
67738;BME280;54534;43.612;1.572;2022-08-18T07:37:09;99086.75;;;24.00;48.72
67738;BME280;54534;43.612;1.572;2022-08-18T07:40:03;99084.06;;;24.00;48.71
67738;BME280;54534;43.612;1.572;2022-08-18T07:42:53;99086.75;;;24.00;48.74
67738;BME280;54534;43.612;1.572;2022-08-18T07:45:36;99082.22;;;24.00;48.82
67738;BME280;54534;43.612;1.572;2022-08-18T07:48:06;99085.91;;;23.99;48.76
67738;BME280;54534;43.612;1.572;2022-08-18T07:53:46;99086.59;;;24.02;48.76
67738;BME280;54534;43.612;1.572;2022-08-18T08:02:44;99083.06;;;24.01;48.70
67738;BME280;54534;43.612;1.572;2022-08-18T08:13:15;99069.47;;;24.03;48.94
67738;BME280;54534;43.612;1.572;2022-08-18T08:21:52;99054.53;;;24.00;49.06
67738;BME280;54534;43.612;1.572;2022-08-18T08:24:42;99058.91;;;24.01;48.76
67738;BME280;54534;43.612;1.572;2022-08-18T08:27:21;99056.22;;;24.01;48.79
67738;BME280;54534;43.612;1.572;2022-08-18T08:29:58;99063.25;;;24.02;48.81
67738;BME280;54534;43.612;1.572;2022-08-18T08:32:51;99063.25;;;24.02;48.66
67738;BME280;54534;43.612;1.572;2022-08-18T08:35:30;99061.41;;;24.03;49.01
67738;BME280;54534;43.612;1.572;2022-08-18T08:38:02;99056.88;;;24.03;48.90
67738;BME280;54534;43.612;1.572;2022-08-18T08:40:48;99059.56;;;24.03;48.87
67738;BME280;54534;43.612;1.572;2022-08-18T08:43:24;99065.78;;;24.04;48.93
67738;BME280;54534;43.612;1.572;2022-08-18T08:46:03;99062.25;;;24.03;49.02
67738;BME280;54534;43.612;1.572;2022-08-18T08:48:33;99063.09;;;24.04;48.82
67738;BME280;54534;43.612;1.572;2022-08-18T08:53:50;99073.00;;;24.03;48.90
67738;BME280;54534;43.612;1.572;2022-08-18T08:56:19;99074.69;;;24.04;48.99
67738;BME280;54534;43.612;1.572;2022-08-18T08:58:56;99069.31;;;24.04;48.97
67738;BME280;54534;43.612;1.572;2022-08-18T09:09:55;99089.78;;;24.05;48.97
67738;BME280;54534;43.612;1.572;2022-08-18T09:12:38;99082.75;;;24.04;48.87
67738;BME280;54534;43.612;1.572;2022-08-18T09:20:47;99085.09;;;24.07;49.02
67738;BME280;54534;43.612;1.572;2022-08-18T09:23:39;99083.41;;;24.06;48.84
67738;BME280;54534;43.612;1.572;2022-08-18T09:31:35;99086.94;;;24.07;48.83
67738;BME280;54534;43.612;1.572;2022-08-18T09:42:15;99091.16;;;24.09;48.84
67738;BME280;54534;43.612;1.572;2022-08-18T09:49:53;99095.69;;;24.09;48.75
67738;BME280;54534;43.612;1.572;2022-08-18T10:05:21;99088.97;;;24.13;48.60
67738;BME280;54534;43.612;1.572;2022-08-18T10:23:43;99074.00;;;24.10;48.69
67738;BME280;54534;43.612;1.572;2022-08-18T10:31:24;99076.69;;;24.10;48.49
67738;BME280;54534;43.612;1.572;2022-08-18T10:34:06;99088.28;;;24.11;48.59
67738;BME280;54534;43.612;1.572;2022-08-18T10:36:50;99080.91;;;24.13;48.30
67738;BME280;54534;43.612;1.572;2022-08-18T10:39:26;99073.88;;;24.12;48.49
67738;BME280;54534;43.612;1.572;2022-08-18T10:42:00;99067.66;;;24.11;48.53
67738;BME280;54534;43.612;1.572;2022-08-18T10:44:31;99065.63;;;24.14;48.60
67738;BME280;54534;43.612;1.572;2022-08-18T10:46:59;99061.13;;;24.14;48.43
67738;BME280;54534;43.612;1.572;2022-08-18T10:49:28;99078.06;;;24.15;48.38
67738;BME280;54534;43.612;1.572;2022-08-18T10:57:42;99074.38;;;24.16;48.24
67738;BME280;54534;43.612;1.572;2022-08-18T11:00:08;99076.06;;;24.17;48.38
67738;BME280;54534;43.612;1.572;2022-08-18T11:05:34;99074.38;;;24.16;48.34
67738;BME280;54534;43.612;1.572;2022-08-18T11:08:04;99065.31;;;24.17;48.11
67738;BME280;54534;43.612;1.572;2022-08-18T11:10:41;99062.63;;;24.17;47.98
67738;BME280;54534;43.612;1.572;2022-08-18T11:13:32;99068.84;;;24.17;48.21
67738;BME280;54534;43.612;1.572;2022-08-18T11:19:12;99068.84;;;24.17;48.21
67738;BME280;54534;43.612;1.572;2022-08-18T11:21:44;99067.81;;;24.18;48.38
67738;BME280;54534;43.612;1.572;2022-08-18T11:24:23;99067.00;;;24.18;48.04
67738;BME280;54534;43.612;1.572;2022-08-18T11:26:58;99060.78;;;24.17;48.24
67738;BME280;54534;43.612;1.572;2022-08-18T11:32:19;99055.25;;;24.19;48.39
67738;BME280;54534;43.612;1.572;2022-08-18T11:34:59;99052.56;;;24.19;48.18
67738;BME280;54534;43.612;1.572;2022-08-18T11:40:10;99048.88;;;24.20;48.18
67738;BME280;54534;43.612;1.572;2022-08-18T11:42:55;99055.09;;;24.20;48.07
67738;BME280;54534;43.612;1.572;2022-08-18T11:45:24;99056.94;;;24.20;48.12
67738;BME280;54534;43.612;1.572;2022-08-18T11:50:28;99054.25;;;24.20;48.49
67738;BME280;54534;43.612;1.572;2022-08-18T11:52:54;99049.72;;;24.20;48.31
67738;BME280;54534;43.612;1.572;2022-08-18T11:55:31;99051.38;;;24.21;48.08
67738;BME280;54534;43.612;1.572;2022-08-18T11:57:58;99042.47;;;24.21;48.25
67738;BME280;54534;43.612;1.572;2022-08-18T12:00:41;99040.63;;;24.21;48.14
67738;BME280;54534;43.612;1.572;2022-08-18T12:03:15;99041.66;;;24.20;48.10
67738;BME280;54534;43.612;1.572;2022-08-18T12:05:53;99046.00;;;24.21;48.22
67738;BME280;54534;43.612;1.572;2022-08-18T12:08:29;99048.69;;;24.21;47.89
67738;BME280;54534;43.612;1.572;2022-08-18T12:11:13;99043.31;;;24.21;47.99
67738;BME280;54534;43.612;1.572;2022-08-18T12:13:43;99049.53;;;24.22;48.09
67738;BME280;54534;43.612;1.572;2022-08-18T12:16:17;99049.53;;;24.22;48.02
67738;BME280;54534;43.612;1.572;2022-08-18T12:18:55;99045.16;;;24.21;48.10
67738;BME280;54534;43.612;1.572;2022-08-18T12:21:20;99044.16;;;24.22;47.95
67738;BME280;54534;43.612;1.572;2022-08-18T12:23:47;99047.84;;;24.21;47.97
67738;BME280;54534;43.612;1.572;2022-08-18T12:26:12;99045.03;;;24.22;48.04
67738;BME280;54534;43.612;1.572;2022-08-18T12:28:39;99045.16;;;24.21;47.87
67738;BME280;54534;43.612;1.572;2022-08-18T12:31:06;99054.06;;;24.21;47.99
67738;BME280;54534;43.612;1.572;2022-08-18T12:33:33;99067.34;;;24.23;47.91
67738;BME280;54534;43.612;1.572;2022-08-18T12:35:58;99075.41;;;24.23;47.94
67738;BME280;54534;43.612;1.572;2022-08-18T12:38:24;99078.25;;;24.21;48.03
67738;BME280;54534;43.612;1.572;2022-08-18T12:40:50;99090.69;;;24.22;48.03
67738;BME280;54534;43.612;1.572;2022-08-18T12:43:16;99084.47;;;24.22;48.14
67738;BME280;54534;43.612;1.572;2022-08-18T12:45:41;99079.94;;;24.22;48.09
67738;BME280;54534;43.612;1.572;2022-08-18T12:48:07;99084.28;;;24.24;47.88
67738;BME280;54534;43.612;1.572;2022-08-18T12:50:34;99082.44;;;24.24;48.01
67738;BME280;54534;43.612;1.572;2022-08-18T12:52:59;99078.91;;;24.24;48.13
67738;BME280;54534;43.612;1.572;2022-08-18T12:55:28;99080.78;;;24.23;47.99
67738;BME280;54534;43.612;1.572;2022-08-18T12:57:55;99081.59;;;24.24;48.00
67738;BME280;54534;43.612;1.572;2022-08-18T13:00:21;99076.22;;;24.24;48.13
67738;BME280;54534;43.612;1.572;2022-08-18T13:02:46;99077.06;;;24.24;47.95
67738;BME280;54534;43.612;1.572;2022-08-18T13:05:12;99071.72;;;24.24;47.96
67738;BME280;54534;43.612;1.572;2022-08-18T13:07:37;99070.84;;;24.24;47.78
67738;BME280;54534;43.612;1.572;2022-08-18T13:10:03;99067.19;;;24.25;47.77
67738;BME280;54534;43.612;1.572;2022-08-18T13:12:28;99062.66;;;24.25;48.00
67738;BME280;54534;43.612;1.572;2022-08-18T13:14:54;99064.66;;;24.23;47.89
67738;BME280;54534;43.612;1.572;2022-08-18T13:17:19;99065.34;;;24.25;47.94
67738;BME280;54534;43.612;1.572;2022-08-18T13:19:45;99059.13;;;24.25;47.91
67738;BME280;54534;43.612;1.572;2022-08-18T13:22:11;99060.81;;;24.26;47.88
67738;BME280;54534;43.612;1.572;2022-08-18T13:24:37;99066.19;;;24.26;48.06
67738;BME280;54534;43.612;1.572;2022-08-18T13:27:03;99068.88;;;24.26;47.73
67738;BME280;54534;43.612;1.572;2022-08-18T13:29:28;99065.34;;;24.25;47.86
67738;BME280;54534;43.612;1.572;2022-08-18T13:31:54;99061.63;;;24.26;48.01
67738;BME280;54534;43.612;1.572;2022-08-18T13:34:24;99069.88;;;24.25;47.87
67738;BME280;54534;43.612;1.572;2022-08-18T13:36:52;99065.34;;;24.25;47.86
67738;BME280;54534;43.612;1.572;2022-08-18T13:39:20;99062.66;;;24.25;47.77
67738;BME280;54534;43.612;1.572;2022-08-18T13:41:47;99053.56;;;24.26;47.71
67738;BME280;54534;43.612;1.572;2022-08-18T13:44:16;99056.44;;;24.25;47.82
67738;BME280;54534;43.612;1.572;2022-08-18T13:46:43;99053.56;;;24.26;47.94
67738;BME280;54534;43.612;1.572;2022-08-18T13:49:13;99043.69;;;24.27;47.89
67738;BME280;54534;43.612;1.572;2022-08-18T13:51:40;99046.38;;;24.27;47.79
67738;BME280;54534;43.612;1.572;2022-08-18T13:54:08;99051.75;;;24.27;47.66
67738;BME280;54534;43.612;1.572;2022-08-18T13:56:34;99032.06;;;24.26;47.76
67738;BME280;54534;43.612;1.572;2022-08-18T13:58:59;99041.00;;;24.27;47.82
67738;BME280;54534;43.612;1.572;2022-08-18T14:01:25;99038.31;;;24.27;47.92
67738;BME280;54534;43.612;1.572;2022-08-18T14:03:51;99039.19;;;24.27;47.78
67738;BME280;54534;43.612;1.572;2022-08-18T14:06:17;99042.53;;;24.29;47.64
67738;BME280;54534;43.612;1.572;2022-08-18T14:08:44;99047.06;;;24.29;47.95
67738;BME280;54534;43.612;1.572;2022-08-18T14:11:10;99052.44;;;24.29;47.60
67738;BME280;54534;43.612;1.572;2022-08-18T14:13:35;99046.25;;;24.28;47.81
67738;BME280;54534;43.612;1.572;2022-08-18T14:16:01;99042.53;;;24.29;47.77
67738;BME280;54534;43.612;1.572;2022-08-18T14:18:26;99053.28;;;24.29;47.89
67738;BME280;54534;43.612;1.572;2022-08-18T14:20:54;99047.06;;;24.29;47.77
67738;BME280;54534;43.612;1.572;2022-08-18T14:23:38;99044.38;;;24.29;47.83
67738;BME280;54534;43.612;1.572;2022-08-18T14:26:29;99039.84;;;24.29;47.68
67738;BME280;54534;43.612;1.572;2022-08-18T14:29:13;99045.22;;;24.29;47.60
67738;BME280;54534;43.612;1.572;2022-08-18T14:31:39;99041.69;;;24.29;47.78
67738;BME280;54534;43.612;1.572;2022-08-18T14:34:04;99043.38;;;24.30;47.79
67738;BME280;54534;43.612;1.572;2022-08-18T14:36:30;99041.69;;;24.29;47.84
67738;BME280;54534;43.612;1.572;2022-08-18T14:38:56;99035.31;;;24.30;47.88
67738;BME280;54534;43.612;1.572;2022-08-18T14:41:22;99030.78;;;24.30;47.70
67738;BME280;54534;43.612;1.572;2022-08-18T14:43:47;99033.47;;;24.30;47.78
67738;BME280;54534;43.612;1.572;2022-08-18T14:46:13;99039.69;;;24.31;47.61
67738;BME280;54534;43.612;1.572;2022-08-18T14:48:38;99037.16;;;24.29;47.71
67738;BME280;54534;43.612;1.572;2022-08-18T14:51:04;99040.50;;;24.31;48.06
67738;BME280;54534;43.612;1.572;2022-08-18T14:53:31;99042.19;;;24.32;47.86
67738;BME280;54534;43.612;1.572;2022-08-18T14:56:01;99037.69;;;24.33;47.56
67738;BME280;54534;43.612;1.572;2022-08-18T14:58:29;99032.31;;;24.33;47.59
67738;BME280;54534;43.612;1.572;2022-08-18T15:01:04;99036.66;;;24.34;47.75
67738;BME280;54534;43.612;1.572;2022-08-18T15:03:34;99033.16;;;24.33;47.74
67738;BME280;54534;43.612;1.572;2022-08-18T15:06:02;99027.78;;;24.33;47.91
67738;BME280;54534;43.612;1.572;2022-08-18T15:08:28;99034.81;;;24.35;47.54
67738;BME280;54534;43.612;1.572;2022-08-18T15:10:55;99028.59;;;24.34;47.75
67738;BME280;54534;43.612;1.572;2022-08-18T15:13:22;99024.06;;;24.35;47.66
67738;BME280;54534;43.612;1.572;2022-08-18T15:15:48;99024.91;;;24.35;47.63
67738;BME280;54534;43.612;1.572;2022-08-18T15:18:14;99008.78;;;24.35;47.68
67738;BME280;54534;43.612;1.572;2022-08-18T15:20:39;99011.47;;;24.35;47.71
67738;BME280;54534;43.612;1.572;2022-08-18T15:23:23;99024.91;;;24.35;47.55
67738;BME280;54534;43.612;1.572;2022-08-18T15:26:07;99022.03;;;24.37;47.63
67738;BME280;54534;43.612;1.572;2022-08-18T15:28:34;99025.75;;;24.36;47.71
67738;BME280;54534;43.612;1.572;2022-08-18T15:30:59;99027.41;;;24.37;47.69
67738;BME280;54534;43.612;1.572;2022-08-18T15:33:25;99031.13;;;24.36;47.58
67738;BME280;54534;43.612;1.572;2022-08-18T15:35:52;99027.41;;;24.37;47.71
67738;BME280;54534;43.612;1.572;2022-08-18T15:38:20;99032.78;;;24.37;47.40
67738;BME280;54534;43.612;1.572;2022-08-18T15:40:53;99031.78;;;24.38;47.42